createdAt,value
2023-02-09T11:49:04.152Z,26.10
2023-02-09T11:50:10.608Z,27.07
2023-02-09T11:51:20.201Z,26.90
2023-02-09T11:52:36.386Z,27.17
2023-02-09T11:54:03.917Z,27.30
2023-02-09T11:55:25.397Z,27.87
2023-02-09T11:56:28.873Z,29.10
2023-02-09T11:57:36.145Z,25.90
2023-02-09T11:58:59.838Z,27.57
2023-02-09T12:00:05.426Z,28.33
2023-02-09T12:01:26.494Z,36.27
2023-02-09T12:03:01.318Z,28.77
2023-02-09T12:04:12.877Z,26.63
2023-02-09T12:05:19.340Z,29.77
2023-02-09T12:06:23.171Z,27.80
2023-02-09T12:07:56.521Z,26.10
2023-02-09T12:09:35.504Z,27.00
2023-02-09T12:11:11.780Z,27.60
2023-02-09T12:12:33.036Z,26.30
2023-02-09T12:14:09.561Z,28.33
2023-02-09T12:15:15.678Z,27.10
2023-02-09T12:16:31.123Z,27.40
2023-02-09T12:17:38.819Z,25.93
2023-02-09T12:18:42.291Z,26.80
2023-02-09T12:19:46.445Z,24.77
2023-02-09T12:20:54.419Z,28.73
2023-02-09T12:21:56.378Z,26.80
2023-02-09T12:23:01.971Z,28.13
2023-02-09T12:24:26.920Z,27.60
2023-02-09T12:25:51.414Z,28.60
2023-02-09T12:26:57.032Z,28.23
2023-02-09T12:28:13.362Z,28.17
2023-02-09T12:29:35.437Z,26.73
2023-02-09T12:30:39.935Z,26.57
2023-02-09T12:32:04.018Z,26.60
2023-02-09T12:33:24.511Z,28.47
2023-02-09T12:34:35.317Z,28.43
2023-02-09T12:35:40.906Z,27.23
2023-02-09T12:37:12.335Z,27.13
2023-02-09T12:38:19.600Z,26.80
2023-02-09T12:39:24.376Z,26.23
2023-02-09T12:40:36.277Z,26.40
2023-02-09T12:41:39.575Z,25.33
2023-02-09T12:42:45.020Z,24.80
2023-02-09T12:43:47.835Z,24.70
2023-02-09T12:44:58.041Z,24.80
2023-02-09T12:46:28.624Z,25.60
2023-02-09T12:47:55.943Z,24.67
2023-02-09T12:49:09.820Z,24.33
2023-02-09T12:50:44.132Z,24.93
2023-02-09T12:51:54.673Z,23.50
2023-02-09T12:53:32.484Z,25.03
2023-02-09T12:54:58.263Z,23.70
2023-02-09T12:56:03.025Z,23.83
2023-02-09T12:57:16.738Z,24.10
2023-02-09T12:58:54.366Z,24.33
2023-02-09T12:59:56.808Z,26.07
2023-02-09T13:00:58.903Z,24.70
2023-02-09T13:02:12.656Z,24.90
2023-02-09T13:03:19.402Z,25.83
2023-02-09T13:04:23.207Z,26.20
2023-02-09T13:05:39.716Z,26.80
2023-02-09T13:06:49.683Z,26.70
2023-02-09T13:08:16.470Z,26.37
2023-02-09T13:09:34.623Z,27.10
2023-02-09T13:10:48.772Z,25.00
2023-02-09T13:11:56.499Z,25.50
2023-02-09T13:13:06.541Z,25.57
2023-02-09T13:14:14.577Z,24.03
2023-02-09T13:15:19.108Z,23.80
2023-02-09T13:16:29.957Z,26.90
2023-02-09T13:18:07.094Z,26.07
2023-02-09T13:19:20.634Z,24.47
2023-02-09T13:21:06.021Z,25.63
2023-02-09T13:22:35.515Z,22.97
2023-02-09T13:24:01.121Z,23.30
2023-02-09T13:25:32.501Z,22.40
2023-02-09T13:26:51.918Z,20.70
2023-02-09T13:27:53.702Z,20.37
2023-02-09T13:29:20.489Z,21.53
2023-02-09T13:30:31.977Z,19.70
2023-02-09T13:31:42.977Z,21.43
2023-02-09T13:32:56.869Z,21.53
2023-02-09T13:34:14.432Z,19.80
2023-02-09T13:35:38.292Z,21.83
2023-02-09T13:37:00.433Z,21.40
2023-02-09T13:38:16.811Z,21.37
2023-02-09T13:39:26.676Z,21.67
2023-02-09T13:40:32.494Z,22.20
2023-02-09T13:41:40.993Z,21.60
2023-02-09T13:43:01.788Z,19.73
2023-02-09T13:44:03.848Z,22.10
2023-02-09T13:45:17.444Z,20.73
2023-02-09T13:46:28.286Z,21.90
2023-02-09T13:47:30.265Z,22.17
2023-02-09T13:48:35.150Z,22.17
2023-02-09T13:49:36.933Z,22.63
2023-02-09T13:50:47.322Z,20.87
2023-02-09T13:52:12.077Z,22.03
2023-02-09T13:53:18.044Z,23.50
2023-02-09T13:54:20.697Z,22.30
2023-02-09T13:55:26.079Z,21.87
2023-02-09T13:56:29.648Z,21.17
2023-02-09T13:57:37.183Z,21.60
2023-02-09T13:58:40.269Z,21.97
2023-02-09T13:59:42.755Z,22.07
2023-02-09T14:00:58.056Z,22.57
2023-02-09T14:02:19.517Z,21.90
2023-02-09T14:04:23.124Z,21.97
2023-02-09T14:06:13.535Z,23.47
2023-02-09T14:07:16.689Z,22.43
2023-02-09T14:08:20.418Z,22.37
2023-02-09T14:09:29.356Z,23.93
2023-02-09T14:10:33.951Z,22.67
2023-02-09T14:12:03.961Z,21.80
2023-02-09T14:13:23.537Z,22.77
2023-02-09T14:14:51.973Z,23.87
2023-02-09T14:16:08.919Z,22.90
2023-02-09T14:17:25.618Z,25.30
2023-02-09T14:18:31.501Z,23.20
2023-02-09T14:19:33.774Z,24.67
2023-02-09T14:20:40.114Z,22.50
2023-02-09T14:21:44.889Z,23.07
2023-02-09T14:22:56.737Z,23.37
2023-02-09T14:24:00.139Z,22.80
2023-02-09T14:25:29.326Z,22.27
2023-02-09T14:26:43.259Z,20.83
2023-02-09T14:27:48.265Z,23.60
2023-02-09T14:29:15.702Z,23.20
2023-02-09T14:30:26.645Z,24.03
2023-02-09T14:31:34.284Z,25.43
2023-02-09T14:32:47.939Z,25.87
2023-02-09T14:33:53.512Z,22.60
2023-02-09T14:34:59.448Z,24.20
2023-02-09T14:36:03.971Z,23.90
2023-02-09T14:37:18.607Z,25.53
2023-02-09T14:38:42.901Z,25.77
2023-02-09T14:40:04.905Z,25.20
2023-02-09T14:41:43.553Z,24.93
2023-02-09T14:43:22.798Z,24.90
2023-02-09T14:44:26.319Z,24.77
2023-02-09T14:45:31.555Z,25.40
2023-02-09T14:47:03.171Z,24.10
2023-02-09T14:48:26.466Z,21.40
2023-02-09T14:49:29.570Z,21.27
2023-02-09T14:50:33.687Z,22.00
2023-02-09T14:51:44.262Z,20.73
2023-02-09T14:52:49.579Z,21.67
2023-02-09T14:53:51.320Z,22.47
2023-02-09T14:54:53.206Z,21.43
2023-02-09T14:56:00.935Z,23.17
2023-02-09T14:57:03.936Z,22.53
2023-02-09T14:58:27.725Z,24.27
2023-02-09T14:59:29.792Z,23.43
2023-02-09T15:00:34.010Z,23.00
2023-02-09T15:01:35.806Z,22.70
2023-02-09T15:02:37.898Z,23.70
2023-02-09T15:03:40.006Z,23.00
2023-02-09T15:04:42.498Z,23.40
2023-02-09T15:05:45.972Z,21.83
2023-02-09T15:06:52.105Z,22.63
2023-02-09T15:07:59.555Z,21.20
2023-02-09T15:09:02.895Z,22.57
2023-02-09T15:10:13.744Z,23.87
2023-02-09T15:11:42.836Z,21.60
2023-02-09T15:12:47.816Z,20.47
2023-02-09T15:13:56.159Z,20.50
2023-02-09T15:15:02.509Z,22.50
2023-02-09T15:16:04.890Z,22.03
2023-02-09T15:17:19.084Z,23.27
2023-02-09T15:18:26.957Z,21.83
2023-02-09T15:19:28.648Z,22.43
2023-02-09T15:20:31.850Z,22.33
2023-02-09T15:21:33.952Z,23.30
2023-02-09T15:22:38.660Z,21.40
2023-02-09T15:23:41.126Z,21.83
2023-02-09T15:24:44.873Z,21.83
2023-02-09T15:25:46.957Z,21.13
2023-02-09T15:26:50.412Z,22.20
2023-02-09T15:28:01.078Z,22.40
2023-02-09T15:29:09.943Z,21.00
2023-02-09T15:30:23.253Z,20.67
2023-02-09T15:31:28.941Z,22.33
2023-02-09T15:32:31.047Z,21.80
2023-02-09T15:33:33.997Z,22.30
2023-02-09T15:34:35.938Z,21.80
2023-02-09T15:35:40.861Z,21.20
2023-02-09T15:36:43.196Z,21.63
2023-02-09T15:37:51.580Z,21.63
2023-02-09T15:38:54.929Z,20.50
2023-02-09T15:40:01.824Z,22.20
2023-02-09T15:41:22.023Z,22.73
2023-02-09T15:42:42.680Z,23.00
2023-02-09T15:44:03.015Z,23.30
2023-02-09T15:45:35.207Z,25.10
2023-02-09T15:46:56.268Z,25.90
2023-02-09T15:47:59.669Z,26.10
2023-02-09T15:49:01.770Z,26.50
2023-02-09T15:50:04.174Z,29.75
2023-02-09T15:51:05.992Z,25.55
2023-02-09T15:52:08.593Z,24.48
2023-02-09T15:53:15.506Z,25.45
2023-02-09T15:54:25.260Z,32.05
2023-02-09T15:55:32.367Z,29.48
2023-02-09T15:56:36.785Z,28.17
2023-02-09T15:57:40.316Z,28.23
2023-02-09T15:58:45.528Z,25.83
2023-02-09T15:59:50.691Z,21.25
2023-02-09T16:00:52.325Z,20.90
2023-02-09T16:01:55.746Z,21.77
2023-02-09T16:03:06.243Z,23.63
2023-02-09T16:04:15.377Z,21.83
2023-02-09T16:05:18.342Z,21.60
2023-02-09T16:06:26.011Z,19.25
2023-02-09T16:07:28.779Z,20.60
2023-02-09T16:08:33.659Z,20.48
2023-02-09T16:09:36.246Z,18.67
2023-02-09T16:10:38.317Z,20.55
2023-02-09T16:11:41.202Z,19.75
2023-02-09T16:12:43.336Z,20.88
2023-02-09T16:13:48.905Z,20.05
2023-02-09T16:14:53.097Z,19.00
2023-02-09T16:16:00.302Z,21.10
2023-02-09T16:17:09.878Z,30.98
2023-02-09T16:18:12.177Z,26.75
2023-02-09T16:19:14.556Z,29.90
2023-02-09T16:20:19.920Z,45.05
2023-02-09T16:21:33.957Z,42.15
2023-02-09T16:22:39.076Z,38.63
2023-02-09T16:23:41.235Z,28.33
2023-02-09T16:24:45.938Z,23.17
2023-02-09T16:25:53.376Z,20.48
2023-02-09T16:26:57.852Z,22.17
2023-02-09T16:28:00.761Z,21.40
2023-02-09T16:29:02.576Z,20.50
2023-02-09T16:30:15.694Z,19.67
2023-02-09T16:31:19.540Z,19.15
2023-02-09T16:32:23.282Z,19.88
2023-02-09T16:33:26.827Z,18.63
2023-02-09T16:34:28.684Z,21.02
2023-02-09T16:35:31.433Z,23.15
2023-02-09T16:36:35.394Z,40.35
2023-02-09T16:37:37.234Z,45.63
2023-02-09T16:38:39.208Z,51.45
2023-02-09T16:39:41.539Z,50.28
2023-02-09T16:40:43.567Z,36.63
2023-02-09T16:41:53.720Z,40.45
2023-02-09T16:42:59.057Z,22.98
2023-02-09T16:44:05.029Z,21.20
2023-02-09T16:45:17.868Z,20.88
2023-02-09T16:46:20.688Z,20.50
2023-02-09T16:47:26.762Z,20.20
2023-02-09T16:48:31.448Z,19.08
2023-02-09T16:49:39.045Z,20.70
2023-02-09T16:50:45.198Z,19.90
2023-02-09T16:51:48.380Z,19.02
2023-02-09T16:52:54.371Z,19.92
2023-02-09T16:53:57.661Z,19.73
2023-02-09T16:55:05.826Z,21.35
2023-02-09T16:56:15.709Z,22.55
2023-02-09T16:57:23.577Z,23.95
2023-02-09T16:58:26.933Z,23.60
2023-02-09T16:59:29.809Z,22.45
2023-02-09T17:00:37.982Z,23.10
2023-02-09T17:01:40.250Z,20.85
2023-02-09T17:02:53.391Z,21.98
2023-02-09T17:03:56.641Z,24.38
2023-02-09T17:04:59.389Z,23.50
2023-02-09T17:06:02.691Z,26.02
2023-02-09T17:07:05.232Z,26.42
2023-02-09T17:08:33.019Z,26.75
2023-02-09T17:09:35.308Z,25.00
2023-02-09T17:10:37.214Z,22.45
2023-02-09T17:11:41.289Z,24.05
2023-02-09T17:12:43.956Z,22.70
2023-02-09T17:13:46.319Z,23.80
2023-02-09T17:14:51.026Z,21.48
2023-02-09T17:15:55.670Z,20.70
2023-02-09T17:16:57.408Z,20.92
2023-02-09T17:18:09.111Z,23.77
2023-02-09T17:19:15.386Z,23.08
2023-02-09T17:20:21.100Z,22.90
2023-02-09T17:21:35.210Z,24.65
2023-02-09T17:22:37.082Z,27.70
2023-02-09T17:23:39.189Z,32.35
2023-02-09T17:24:42.065Z,29.92
2023-02-09T17:25:44.898Z,27.70
2023-02-09T17:26:47.072Z,28.00
2023-02-09T17:27:50.494Z,26.30
2023-02-09T17:28:52.588Z,25.90
2023-02-09T17:29:54.302Z,24.83
2023-02-09T17:30:58.729Z,25.65
2023-02-09T17:32:03.017Z,25.80
2023-02-09T17:33:08.527Z,30.85
2023-02-09T17:34:15.834Z,32.50
2023-02-09T17:35:44.599Z,30.80
2023-02-09T17:36:46.415Z,33.92
2023-02-09T17:37:49.487Z,35.08
2023-02-09T17:38:53.861Z,34.83
2023-02-09T17:39:56.717Z,37.63
2023-02-09T17:41:02.408Z,34.92
2023-02-09T17:42:04.247Z,33.65
2023-02-09T17:43:06.402Z,28.40
2023-02-09T17:44:39.683Z,31.25
2023-02-09T17:45:49.050Z,29.15
2023-02-09T17:46:52.487Z,34.22
2023-02-09T17:47:57.991Z,33.95
2023-02-09T17:49:00.100Z,31.67
2023-02-09T17:50:02.340Z,31.85
2023-02-09T17:51:06.953Z,30.98
2023-02-09T17:52:21.228Z,30.85
2023-02-09T17:53:26.379Z,26.33
2023-02-09T17:54:34.500Z,25.30
2023-02-09T17:55:38.582Z,25.63
2023-02-09T17:56:40.945Z,26.90
2023-02-09T17:57:46.039Z,26.10
2023-02-09T17:58:48.083Z,25.90
2023-02-09T17:59:51.004Z,28.52
2023-02-09T18:00:56.628Z,31.17
2023-02-09T18:02:01.291Z,33.33
2023-02-09T18:03:03.433Z,32.80
2023-02-09T18:04:05.807Z,31.55
2023-02-09T18:05:08.224Z,40.13
2023-02-09T18:06:15.265Z,39.72
2023-02-09T18:07:20.886Z,35.65
2023-02-09T18:08:23.008Z,34.15
2023-02-09T18:09:25.904Z,34.90
2023-02-09T18:10:31.332Z,31.10
2023-02-09T18:11:45.229Z,31.13
2023-02-09T18:12:50.640Z,30.40
2023-02-09T18:13:53.785Z,30.83
2023-02-09T18:14:55.988Z,26.75
2023-02-09T18:15:57.949Z,27.80
2023-02-09T18:17:00.384Z,27.35
2023-02-09T18:18:04.427Z,27.10
2023-02-09T18:19:06.662Z,27.05
2023-02-09T18:20:15.150Z,27.35
2023-02-09T18:21:17.041Z,25.50
2023-02-09T18:22:23.070Z,30.77
2023-02-09T18:23:27.679Z,34.20
2023-02-09T18:24:32.931Z,31.02
2023-02-09T18:25:37.784Z,35.78
2023-02-09T18:26:41.628Z,36.45
2023-02-09T18:27:43.491Z,37.10
2023-02-09T18:28:47.431Z,41.92
2023-02-09T18:29:52.554Z,43.30
2023-02-09T18:30:54.716Z,40.20
2023-02-09T18:32:01.629Z,38.58
2023-02-09T18:33:06.018Z,42.30
2023-02-09T18:34:10.329Z,40.30
2023-02-09T18:35:44.602Z,42.40
2023-02-09T18:36:48.228Z,36.70
2023-02-09T18:37:53.324Z,36.70
2023-02-09T18:38:56.109Z,34.78
2023-02-09T18:40:03.286Z,34.05
2023-02-09T18:41:06.018Z,33.83
2023-02-09T18:42:14.636Z,34.47
2023-02-09T18:43:19.440Z,32.38
2023-02-09T18:44:27.706Z,32.95
2023-02-09T18:45:35.591Z,32.97
2023-02-09T18:46:38.287Z,31.70
2023-02-09T18:47:40.710Z,32.63
2023-02-09T18:48:42.842Z,29.60
2023-02-09T18:49:45.536Z,30.52
2023-02-09T18:50:47.490Z,30.52
2023-02-09T18:51:53.862Z,30.15
2023-02-09T18:53:02.211Z,29.42
2023-02-09T18:54:06.074Z,29.65
2023-02-09T18:55:09.257Z,31.45
2023-02-09T18:56:22.397Z,33.90
2023-02-09T18:57:29.223Z,31.55
2023-02-09T18:58:31.982Z,30.95
2023-02-09T18:59:34.368Z,31.73
2023-02-09T19:00:39.087Z,30.48
2023-02-09T19:01:42.100Z,28.30
2023-02-09T19:02:48.082Z,32.30
2023-02-09T19:03:55.671Z,28.15
2023-02-09T19:04:58.376Z,33.97
2023-02-09T19:06:01.767Z,32.88
2023-02-09T19:07:04.250Z,33.42
2023-02-09T19:08:07.538Z,34.88
2023-02-09T19:09:14.908Z,32.67
2023-02-09T19:10:19.991Z,32.60
2023-02-09T19:11:25.091Z,30.77
2023-02-09T19:12:28.957Z,29.90
2023-02-09T19:13:34.077Z,34.13
2023-02-09T19:14:42.609Z,33.80
2023-02-09T19:15:48.146Z,31.58
2023-02-09T19:16:50.400Z,34.58
2023-02-09T19:17:56.735Z,35.42
2023-02-09T19:18:59.271Z,36.92
2023-02-09T19:20:05.018Z,42.08
2023-02-09T19:21:13.656Z,40.08
2023-02-09T19:22:18.371Z,40.17
2023-02-09T19:23:20.372Z,46.92
2023-02-09T19:24:24.604Z,38.70
2023-02-09T19:25:30.525Z,33.20
2023-02-09T19:26:38.171Z,32.05
2023-02-09T19:27:44.545Z,31.67
2023-02-09T19:28:48.369Z,30.75
2023-02-09T19:29:57.402Z,34.33
2023-02-09T19:30:59.866Z,29.27
2023-02-09T19:32:03.006Z,32.08
2023-02-09T19:33:05.113Z,29.02
2023-02-09T19:34:06.909Z,31.15
2023-02-09T19:35:09.086Z,31.38
2023-02-09T19:36:12.835Z,28.55
2023-02-09T19:37:15.480Z,29.70
2023-02-09T19:38:17.381Z,30.23
2023-02-09T19:39:20.256Z,29.13
2023-02-09T19:40:35.960Z,27.65
2023-02-09T19:41:38.127Z,29.75
2023-02-09T19:42:39.862Z,32.65
2023-02-09T19:43:42.032Z,30.98
2023-02-09T19:44:43.962Z,31.15
2023-02-09T19:45:48.069Z,32.70
2023-02-09T19:46:50.731Z,33.13
2023-02-09T19:47:53.067Z,34.55
2023-02-09T19:48:55.200Z,28.65
2023-02-09T19:50:00.865Z,32.72
2023-02-09T19:51:02.956Z,32.28
2023-02-09T19:52:06.051Z,30.95
2023-02-09T19:53:08.327Z,30.23
2023-02-09T19:54:10.486Z,30.88
2023-02-09T19:55:15.107Z,29.20
2023-02-09T19:56:23.816Z,27.92
2023-02-09T19:57:27.269Z,27.35
2023-02-09T19:58:29.391Z,29.10
2023-02-09T19:59:36.800Z,29.70
2023-02-09T20:00:39.990Z,28.73
2023-02-09T20:01:42.365Z,30.15
2023-02-09T20:02:46.567Z,31.73
2023-02-09T20:03:50.293Z,29.88
2023-02-09T20:04:52.936Z,30.73
2023-02-09T20:05:56.152Z,32.17
2023-02-09T20:06:57.993Z,32.38
2023-02-09T20:07:59.844Z,30.73
2023-02-09T20:09:02.257Z,30.80
2023-02-09T20:10:05.157Z,34.10
2023-02-09T20:11:09.291Z,33.05
2023-02-09T20:12:11.963Z,34.33
2023-02-09T20:13:16.617Z,33.35
2023-02-09T20:14:19.265Z,33.53
2023-02-09T20:15:21.787Z,29.98
2023-02-09T20:16:26.035Z,31.70
2023-02-09T20:17:28.282Z,32.40
2023-02-09T20:18:30.964Z,33.08
2023-02-09T20:19:37.797Z,35.33
2023-02-09T20:20:42.843Z,33.70
2023-02-09T20:21:46.607Z,41.13
2023-02-09T20:22:51.974Z,43.78
2023-02-09T20:23:56.225Z,40.70
2023-02-09T20:24:58.077Z,35.97
2023-02-09T20:26:00.113Z,32.70
2023-02-09T20:27:01.895Z,31.17
2023-02-09T20:28:05.126Z,31.40
2023-02-09T20:29:08.399Z,33.53
2023-02-09T20:30:11.440Z,37.28
2023-02-09T20:31:21.775Z,40.22
2023-02-09T20:32:23.714Z,46.03
2023-02-09T20:33:27.047Z,46.50
2023-02-09T20:34:32.061Z,41.72
2023-02-09T20:35:33.997Z,34.75
2023-02-09T20:36:41.852Z,36.28
2023-02-09T20:37:44.823Z,33.85
2023-02-09T20:38:47.100Z,33.47
2023-02-09T20:39:49.116Z,31.60
2023-02-09T20:40:50.773Z,30.55
2023-02-09T20:42:19.560Z,31.63
2023-02-09T20:43:39.985Z,29.88
2023-02-09T20:45:01.312Z,32.22
2023-02-09T20:46:26.516Z,33.22
2023-02-09T20:47:30.318Z,30.25
2023-02-09T20:48:32.694Z,29.30
2023-02-09T20:49:39.623Z,26.02
2023-02-09T20:50:41.393Z,27.75
2023-02-09T20:51:44.769Z,28.45
2023-02-09T20:52:46.689Z,29.05
2023-02-09T20:53:49.742Z,27.90
2023-02-09T20:54:51.775Z,32.35
2023-02-09T20:55:54.866Z,31.48
2023-02-09T20:56:56.819Z,33.13
2023-02-09T20:57:58.647Z,38.28
2023-02-09T20:59:01.869Z,39.20
2023-02-09T21:00:09.519Z,41.20
2023-02-09T21:01:12.053Z,41.33
2023-02-09T21:02:17.008Z,39.22
2023-02-09T21:03:21.339Z,35.13
2023-02-09T21:04:23.801Z,34.00
2023-02-09T21:05:25.587Z,36.72
2023-02-09T21:06:30.028Z,33.90
2023-02-09T21:07:34.641Z,32.55
2023-02-09T21:08:40.732Z,33.75
2023-02-09T21:09:42.768Z,34.22
2023-02-09T21:10:44.883Z,34.78
2023-02-09T21:11:49.621Z,38.38
2023-02-09T21:12:53.874Z,37.10
2023-02-09T21:13:55.933Z,38.20
2023-02-09T21:14:59.517Z,35.83
2023-02-09T21:16:03.242Z,38.63
2023-02-09T21:17:06.984Z,37.75
2023-02-09T21:18:11.681Z,38.08
2023-02-09T21:19:14.634Z,33.65
2023-02-09T21:20:17.099Z,34.05
2023-02-09T21:21:19.833Z,33.47
2023-02-09T21:22:22.776Z,32.67
2023-02-09T21:23:24.507Z,33.72
2023-02-09T21:24:27.311Z,34.17
2023-02-09T21:25:29.981Z,34.78
2023-02-09T21:26:31.908Z,35.03
2023-02-09T21:27:34.486Z,33.28
2023-02-09T21:28:36.857Z,33.83
2023-02-09T21:29:40.059Z,29.33
2023-02-09T21:30:44.631Z,32.03
2023-02-09T21:31:49.393Z,29.33
2023-02-09T21:32:51.321Z,31.08
2023-02-09T21:33:54.946Z,30.67
2023-02-09T21:34:57.793Z,28.92
2023-02-09T21:35:59.446Z,28.75
2023-02-09T21:37:03.538Z,28.40
2023-02-09T21:38:05.936Z,28.90
2023-02-09T21:39:10.436Z,27.70
2023-02-09T21:40:13.492Z,28.45
2023-02-09T21:41:41.963Z,28.80
2023-02-09T21:42:45.872Z,27.65
2023-02-09T21:43:47.838Z,30.67
2023-02-09T21:44:54.091Z,31.85
2023-02-09T21:45:57.054Z,33.35
2023-02-09T21:47:00.551Z,31.35
2023-02-09T21:48:02.720Z,31.73
2023-02-09T21:49:06.570Z,32.08
2023-02-09T21:50:12.853Z,31.52
2023-02-09T21:51:18.197Z,31.10
2023-02-09T21:52:20.129Z,33.13
2023-02-09T21:53:21.807Z,32.53
2023-02-09T21:54:26.214Z,34.08
2023-02-09T21:55:31.263Z,32.95
2023-02-09T21:56:33.223Z,31.42
2023-02-09T21:57:36.231Z,27.50
2023-02-09T21:58:37.969Z,29.75
2023-02-09T21:59:39.680Z,28.83
2023-02-09T22:00:43.214Z,28.27
2023-02-09T22:01:44.998Z,30.00
2023-02-09T22:02:53.259Z,29.75
2023-02-09T22:03:59.821Z,27.20
2023-02-09T22:05:05.325Z,29.08
2023-02-09T22:06:07.310Z,28.63
2023-02-09T22:07:11.032Z,28.92
2023-02-09T22:08:15.767Z,27.48
2023-02-09T22:09:20.363Z,28.17
2023-02-09T22:10:22.838Z,25.55
2023-02-09T22:11:27.048Z,27.52
2023-02-09T22:12:29.137Z,27.98
2023-02-09T22:13:31.693Z,29.23
2023-02-09T22:14:33.616Z,26.90
2023-02-09T22:15:35.684Z,26.60
2023-02-09T22:16:38.730Z,26.17
2023-02-09T22:17:40.617Z,26.27
2023-02-09T22:18:45.504Z,24.92
2023-02-09T22:19:48.589Z,26.23
2023-02-09T22:20:51.200Z,27.80
2023-02-09T22:21:53.028Z,26.02
2023-02-09T22:22:55.039Z,28.63
2023-02-09T22:23:58.672Z,27.90
2023-02-09T22:25:00.377Z,24.92
2023-02-09T22:26:05.905Z,27.98
2023-02-09T22:27:07.859Z,27.10
2023-02-09T22:28:09.629Z,29.90
2023-02-09T22:29:13.483Z,30.08
2023-02-09T22:30:18.835Z,30.35
2023-02-09T22:31:21.861Z,30.65
2023-02-09T22:32:25.118Z,32.63
2023-02-09T22:33:29.859Z,30.60
2023-02-09T22:34:31.776Z,32.38
2023-02-09T22:35:33.487Z,29.15
2023-02-09T22:36:36.592Z,31.20
2023-02-09T22:37:40.157Z,31.10
2023-02-09T22:38:44.629Z,32.90
2023-02-09T22:39:47.651Z,32.70
2023-02-09T22:40:49.911Z,29.75
2023-02-09T22:41:51.805Z,29.05
2023-02-09T22:42:53.874Z,32.05
2023-02-09T22:43:58.608Z,30.58
2023-02-09T22:45:00.991Z,34.22
2023-02-09T22:46:03.185Z,31.02
2023-02-09T22:47:04.948Z,31.63
2023-02-09T22:48:07.028Z,29.63
2023-02-09T22:49:18.217Z,29.58
2023-02-09T22:50:20.868Z,30.77
2023-02-09T22:51:24.147Z,30.30
2023-02-09T22:52:28.919Z,29.35
2023-02-09T22:53:30.819Z,29.17
2023-02-09T22:55:00.254Z,29.58
2023-02-09T22:56:09.384Z,30.08
2023-02-09T22:57:11.218Z,28.92
2023-02-09T22:58:12.794Z,29.33
2023-02-09T22:59:16.499Z,30.65
2023-02-09T23:00:18.699Z,32.63
2023-02-09T23:01:20.532Z,31.73
2023-02-09T23:02:26.914Z,31.55
2023-02-09T23:03:28.718Z,32.65
2023-02-09T23:04:32.949Z,31.10
2023-02-09T23:05:35.866Z,30.90
2023-02-09T23:06:37.729Z,30.48
2023-02-09T23:07:41.873Z,30.25
2023-02-09T23:08:46.786Z,28.55
2023-02-09T23:09:48.547Z,29.15
2023-02-09T23:10:51.327Z,30.15
2023-02-09T23:11:53.710Z,28.30
2023-02-09T23:12:55.471Z,27.73
2023-02-09T23:14:09.307Z,28.83
2023-02-09T23:15:12.310Z,29.35
2023-02-09T23:16:16.826Z,27.63
2023-02-09T23:17:20.242Z,28.33
2023-02-09T23:18:23.623Z,30.73
2023-02-09T23:19:25.723Z,33.50
2023-02-09T23:20:27.459Z,31.48
2023-02-09T23:21:31.714Z,30.23
2023-02-09T23:22:33.690Z,33.15
2023-02-09T23:23:36.259Z,34.20
2023-02-09T23:24:38.494Z,34.45
2023-02-09T23:25:42.997Z,35.38
2023-02-09T23:26:50.655Z,35.63
2023-02-09T23:27:53.611Z,33.83
2023-02-09T23:29:00.998Z,32.60
2023-02-09T23:30:05.028Z,32.35
2023-02-09T23:31:09.138Z,33.15
2023-02-09T23:32:10.857Z,33.92
2023-02-09T23:33:12.971Z,32.80
2023-02-09T23:34:20.591Z,32.33
2023-02-09T23:35:25.994Z,31.20
2023-02-09T23:36:31.579Z,30.88
2023-02-09T23:37:38.079Z,31.65
2023-02-09T23:38:40.236Z,33.70
2023-02-09T23:39:42.144Z,35.45
2023-02-09T23:40:44.138Z,35.20
2023-02-09T23:41:47.106Z,34.15
2023-02-09T23:42:49.112Z,33.70
2023-02-09T23:43:52.594Z,35.30
2023-02-09T23:44:54.409Z,31.95
2023-02-09T23:46:01.266Z,33.63
2023-02-09T23:47:02.907Z,33.65
2023-02-09T23:48:04.697Z,32.88
2023-02-09T23:49:09.905Z,31.60
2023-02-09T23:50:11.473Z,34.45
2023-02-09T23:51:18.367Z,33.35
2023-02-09T23:52:20.230Z,32.42
2023-02-09T23:53:24.692Z,34.58
2023-02-09T23:54:27.771Z,33.58
2023-02-09T23:55:32.467Z,34.33
2023-02-09T23:56:38.755Z,33.45
2023-02-09T23:57:40.458Z,32.33
2023-02-09T23:58:49.342Z,32.58
2023-02-09T23:59:51.513Z,32.65
